createdAt,value
2023-04-02T00:04:12.465Z,5.60
2023-04-02T00:09:06.825Z,5.60
2023-04-02T00:13:57.068Z,5.88
2023-04-02T00:18:50.361Z,5.80
2023-04-02T00:23:42.402Z,5.64
2023-04-02T00:28:35.450Z,5.70
2023-04-02T00:33:27.442Z,5.67
2023-04-02T00:38:22.184Z,5.62
2023-04-02T00:43:17.621Z,5.56
2023-04-02T00:48:25.886Z,5.64
2023-04-02T00:53:21.540Z,5.50
2023-04-02T00:58:20.887Z,5.53
2023-04-02T01:03:35.458Z,5.55
2023-04-02T01:08:32.513Z,5.44
2023-04-02T01:13:28.969Z,5.37
2023-04-02T01:18:31.728Z,5.22
2023-04-02T01:23:28.235Z,5.24
2023-04-02T01:28:22.612Z,5.36
2023-04-02T01:33:15.965Z,5.37
2023-04-02T01:38:14.228Z,5.33
2023-04-02T01:43:09.805Z,5.17
2023-04-02T01:48:02.095Z,5.16
2023-04-02T01:52:57.636Z,5.15
2023-04-02T01:57:50.365Z,5.22
2023-04-02T02:02:41.546Z,5.06
2023-04-02T02:07:33.533Z,5.12
2023-04-02T02:12:29.864Z,5.10
2023-04-02T02:17:21.719Z,4.97
2023-04-02T02:22:15.759Z,4.92
2023-04-02T02:27:21.840Z,4.90
2023-04-02T02:32:19.911Z,5.09
2023-04-02T02:37:14.119Z,4.93
2023-04-02T02:42:06.716Z,4.95
2023-04-02T02:47:01.461Z,4.68
2023-04-02T02:52:03.043Z,4.69
2023-04-02T02:57:07.890Z,4.62
2023-04-02T03:01:59.001Z,4.67
2023-04-02T03:06:53.185Z,4.32
2023-04-02T03:12:05.017Z,4.34
2023-04-02T03:17:09.389Z,4.53
2023-04-02T03:22:09.707Z,4.08
2023-04-02T03:27:23.994Z,4.06
2023-04-02T03:32:23.680Z,4.09
2023-04-02T03:37:22.547Z,4.01
2023-04-02T03:42:23.082Z,3.97
2023-04-02T03:47:23.218Z,3.92
2023-04-02T03:52:17.815Z,3.85
2023-04-02T03:57:22.882Z,3.75
2023-04-02T04:02:31.177Z,3.86
2023-04-02T04:07:33.594Z,3.70
2023-04-02T04:12:32.674Z,3.62
2023-04-02T04:17:35.268Z,3.45
2023-04-02T04:22:30.778Z,3.55
2023-04-02T04:27:38.085Z,3.48
2023-04-02T04:32:35.822Z,3.40
2023-04-02T04:37:41.504Z,3.42
2023-04-02T04:42:40.171Z,3.50
2023-04-02T04:47:39.381Z,3.55
2023-04-02T04:52:39.003Z,3.48
2023-04-02T04:57:35.124Z,3.42
2023-04-02T05:02:39.311Z,3.43
2023-04-02T05:07:33.834Z,3.44
2023-04-02T05:12:40.334Z,3.35
2023-04-02T05:17:42.038Z,3.37
2023-04-02T05:22:41.823Z,3.25
2023-04-02T05:27:57.792Z,3.20
2023-04-02T05:32:59.345Z,3.17
2023-04-02T05:37:53.224Z,3.12
2023-04-02T05:42:51.014Z,3.08
2023-04-02T05:47:49.207Z,3.01
2023-04-02T05:52:55.397Z,3.03
2023-04-02T05:58:21.445Z,3.52
2023-04-02T06:03:14.551Z,3.10
2023-04-02T06:08:14.379Z,3.28
2023-04-02T06:13:10.259Z,3.17
2023-04-02T06:18:09.469Z,3.34
2023-04-02T06:23:05.045Z,2.96
2023-04-02T06:28:05.539Z,3.09
2023-04-02T06:33:04.705Z,3.08
2023-04-02T06:38:01.263Z,2.66
2023-04-02T06:43:00.520Z,2.63
2023-04-02T06:48:20.218Z,2.51
2023-04-02T06:53:25.765Z,2.42
2023-04-02T06:58:23.129Z,2.24
2023-04-02T07:03:23.180Z,2.27
2023-04-02T07:08:18.787Z,2.24
2023-04-02T07:13:11.799Z,2.42
2023-04-02T07:18:08.974Z,2.57
2023-04-02T07:23:03.162Z,2.61
2023-04-02T07:27:55.991Z,2.59
2023-04-02T07:32:46.866Z,2.72
2023-04-02T07:37:44.663Z,2.89
2023-04-02T07:42:37.064Z,2.83
2023-04-02T07:47:28.912Z,2.74
2023-04-02T07:52:21.365Z,2.68
2023-04-02T07:57:15.000Z,2.57
2023-04-02T08:02:06.252Z,2.58
2023-04-02T08:06:59.363Z,2.48
2023-04-02T08:11:50.526Z,2.46
2023-04-02T08:16:57.705Z,2.41
2023-04-02T08:21:52.492Z,2.34
2023-04-02T08:26:48.277Z,2.27
2023-04-02T08:31:41.214Z,2.33
2023-04-02T08:36:40.314Z,2.40
2023-04-02T08:41:35.873Z,2.46
2023-04-02T08:46:34.214Z,2.46
2023-04-02T08:51:31.451Z,2.39
2023-04-02T08:56:33.035Z,2.35
2023-04-02T09:01:35.203Z,2.31
2023-04-02T09:06:32.912Z,2.50
2023-04-02T09:11:38.849Z,2.53
2023-04-02T09:16:46.911Z,2.56
2023-04-02T09:21:50.178Z,2.68
2023-04-02T09:26:43.143Z,2.62
2023-04-02T09:31:41.271Z,2.68
2023-04-02T09:36:44.255Z,2.86
2023-04-02T09:41:40.729Z,2.86
2023-04-02T09:46:37.645Z,2.97
2023-04-02T09:51:35.443Z,2.99
2023-04-02T09:56:29.233Z,3.10
2023-04-02T10:01:41.014Z,3.18
2023-04-02T10:06:38.172Z,3.11
2023-04-02T10:11:54.414Z,2.97
2023-04-02T10:16:54.604Z,2.78
2023-04-02T10:21:50.164Z,2.77
2023-04-02T10:26:56.423Z,2.95
2023-04-02T10:32:04.194Z,2.85
2023-04-02T10:36:58.566Z,2.93
2023-04-02T10:42:05.490Z,3.05
2023-04-02T10:47:10.521Z,3.13
2023-04-02T10:52:16.689Z,3.12
2023-04-02T10:57:21.759Z,3.22
2023-04-02T11:02:39.936Z,3.27
2023-04-02T11:07:36.998Z,3.04
2023-04-02T11:12:41.577Z,3.05
2023-04-02T11:17:37.388Z,3.64
2023-04-02T11:22:39.138Z,4.28
2023-04-02T11:27:38.769Z,4.56
2023-04-02T11:32:39.380Z,4.90
2023-04-02T11:39:57.363Z,10.03
2023-04-02T11:44:48.923Z,10.29
2023-04-02T11:50:01.645Z,10.66
2023-04-02T11:55:06.601Z,10.72
2023-04-02T12:00:18.318Z,11.23
2023-04-02T12:05:30.934Z,11.73
2023-04-02T12:10:26.226Z,12.03
2023-04-02T12:15:41.479Z,11.96
2023-04-02T12:20:36.503Z,11.65
2023-04-02T12:25:35.365Z,11.93
2023-04-02T12:30:29.533Z,12.05
2023-04-02T12:35:33.351Z,11.82
2023-04-02T12:40:26.667Z,12.09
2023-04-02T12:45:31.812Z,12.12
2023-04-02T12:50:25.442Z,12.57
2023-04-02T12:55:23.665Z,12.35
2023-04-02T13:00:37.097Z,12.45
2023-04-02T13:05:43.816Z,12.84
2023-04-02T13:10:35.424Z,13.03
2023-04-02T13:15:35.005Z,13.07
2023-04-02T13:20:33.523Z,13.21
2023-04-02T13:25:31.343Z,12.98
2023-04-02T13:30:32.371Z,12.87
2023-04-02T13:35:23.000Z,12.58
2023-04-02T13:40:18.587Z,12.57
2023-04-02T13:45:21.476Z,12.62
2023-04-02T13:50:12.885Z,12.98
2023-04-02T13:55:04.254Z,13.20
2023-04-02T13:59:55.086Z,13.13
2023-04-02T14:04:51.734Z,13.49
2023-04-02T14:09:51.055Z,13.35
2023-04-02T14:14:49.775Z,13.63
2023-04-02T14:19:51.581Z,13.67
2023-04-02T14:24:52.777Z,13.84
2023-04-02T14:29:48.820Z,13.62
2023-04-02T14:34:44.152Z,13.78
2023-04-02T14:39:41.818Z,13.99
2023-04-02T14:44:42.160Z,14.14
2023-04-02T14:49:36.317Z,14.29
2023-04-02T14:54:32.802Z,14.57
2023-04-02T14:59:26.962Z,14.74
2023-04-02T15:04:22.115Z,14.82
2023-04-02T15:09:19.165Z,14.80
2023-04-02T15:14:15.948Z,14.65
2023-04-02T15:19:13.889Z,14.78
2023-04-02T15:24:13.867Z,14.88
2023-04-02T15:29:18.911Z,14.70
2023-04-02T15:34:23.855Z,14.67
2023-04-02T15:39:32.946Z,14.70
2023-04-02T15:44:26.718Z,14.57
2023-04-02T15:49:23.801Z,14.45
2023-04-02T15:54:27.110Z,14.61
2023-04-02T15:59:32.106Z,14.67
2023-04-02T16:04:49.390Z,14.65
2023-04-02T16:09:47.564Z,14.63
2023-04-02T16:14:40.853Z,14.48
2023-04-02T16:19:38.898Z,14.48
2023-04-02T16:24:35.543Z,14.59
2023-04-02T16:29:53.426Z,14.60
2023-04-02T16:34:50.942Z,14.58
2023-04-02T16:39:50.752Z,14.77
2023-04-02T16:44:48.015Z,14.84
2023-04-02T16:49:41.239Z,14.76
2023-04-02T16:54:35.341Z,14.76
2023-04-02T16:59:35.266Z,14.58
2023-04-02T17:04:36.269Z,14.51
2023-04-02T17:09:33.262Z,13.98
2023-04-02T17:14:33.534Z,14.11
2023-04-02T17:19:24.892Z,14.04
2023-04-02T17:24:21.328Z,13.99
2023-04-02T17:29:16.942Z,13.77
2023-04-02T17:34:16.667Z,13.69
2023-04-02T17:39:13.424Z,13.61
2023-04-02T17:44:06.345Z,13.65
2023-04-02T17:49:02.551Z,13.58
2023-04-02T17:54:03.992Z,13.60
2023-04-02T17:59:03.503Z,13.32
2023-04-02T18:03:57.450Z,13.28
2023-04-02T18:08:55.091Z,13.13
2023-04-02T18:13:52.767Z,12.92
2023-04-02T18:19:03.827Z,12.84
2023-04-02T18:23:58.173Z,12.64
2023-04-02T18:28:59.444Z,12.48
2023-04-02T18:34:04.980Z,12.44
2023-04-02T18:38:58.667Z,12.28
2023-04-02T18:43:58.746Z,12.24
2023-04-02T18:48:54.637Z,12.05
2023-04-02T18:53:46.389Z,11.99
2023-04-02T18:58:42.770Z,11.87
2023-04-02T19:03:40.387Z,11.82
2023-04-02T19:08:40.261Z,11.53
2023-04-02T19:13:32.071Z,11.44
2023-04-02T19:18:34.349Z,11.32
2023-04-02T19:23:42.557Z,11.22
2023-04-02T19:28:37.806Z,11.08
2023-04-02T19:33:51.362Z,11.09
2023-04-02T19:38:59.983Z,10.97
2023-04-02T19:43:51.960Z,10.90
2023-04-02T19:48:48.106Z,11.06
2023-04-02T19:53:39.187Z,11.10
2023-04-02T19:58:35.188Z,11.02
2023-04-02T20:03:26.122Z,10.89
2023-04-02T20:08:17.112Z,10.96
2023-04-02T20:13:08.591Z,11.04
2023-04-02T20:18:01.997Z,10.94
2023-04-02T20:22:54.331Z,10.84
2023-04-02T20:27:45.421Z,10.84
2023-04-02T20:32:37.756Z,10.78
2023-04-02T20:37:33.052Z,10.76
2023-04-02T20:42:23.328Z,10.76
2023-04-02T20:47:16.872Z,10.56
2023-04-02T20:52:09.680Z,10.47
2023-04-02T20:57:03.501Z,10.36
2023-04-02T21:01:54.473Z,10.28
2023-04-02T21:06:46.338Z,10.31
2023-04-02T21:11:37.003Z,10.26
2023-04-02T21:16:32.312Z,10.30
2023-04-02T21:21:23.502Z,10.16
2023-04-02T21:26:16.410Z,10.10
2023-04-02T21:31:07.810Z,10.12
2023-04-02T21:36:01.765Z,10.09
2023-04-02T21:40:53.367Z,10.06
2023-04-02T21:45:46.376Z,10.07
2023-04-02T21:50:37.966Z,9.96
2023-04-02T21:55:32.141Z,9.87
2023-04-02T22:00:22.511Z,9.85
2023-04-02T22:05:12.622Z,9.74
2023-04-02T22:10:05.536Z,9.78
2023-04-02T22:14:59.615Z,9.61
2023-04-02T22:19:50.224Z,9.62
2023-04-02T22:24:40.947Z,9.51
2023-04-02T22:29:31.496Z,9.43
2023-04-02T22:34:24.820Z,9.33
2023-04-02T22:39:17.149Z,9.37
2023-04-02T22:44:08.499Z,9.36
2023-04-02T22:48:59.455Z,9.33
2023-04-02T22:53:55.991Z,9.21
2023-04-02T22:58:46.961Z,9.25
2023-04-02T23:03:37.681Z,9.00
2023-04-02T23:08:28.105Z,8.93
2023-04-02T23:13:21.682Z,8.82
2023-04-02T23:18:11.786Z,8.86
2023-04-02T23:23:03.409Z,8.85
2023-04-02T23:27:54.432Z,8.85
2023-04-02T23:32:48.428Z,8.79
2023-04-02T23:37:39.449Z,8.71
2023-04-02T23:42:29.973Z,8.59
2023-04-02T23:47:20.694Z,8.57
2023-04-02T23:52:14.184Z,8.67
2023-04-02T23:57:06.094Z,8.49
